Archival Weather

Granbury Rgnl

Granbury, Texas (KGDJ)

Report from: Monday, January 29, 2024 11:35 AM UTC
Current time: Tuesday, June 18, 2024 1:32 PM UTC

Current weather – Weather history – Daily summaries
Weather forecast

Temperature1.6°C (34.9°F)
Dew point0.8°C (33.4°F)
Winds Calm
Visibility10 mi. (16.1 km)
Clouds Sky clear
Altimeter30.34 in.Hg (1027 mB)
Relative humidity94 %
Density altitude-2,017 ft. (-615 m)
Remarks Fully automated report
Automated weather observing station with precipitation discriminator
Flight conditions Visual Meteorological Conditions
Raw dataKGDJ 291135Z AUTO 00000KT 10SM CLR 02/01 A3034 RMK AO2 T00160008
An error has occurred. This application may no longer respond until reloaded. Reload 🗙